Terminal Aerodrome Forecast
Issued by NWS

Home | Current Version | Previous Version | Text Only | Print | Product List | Glossary Off
Versions: 1 2 3 4 5 6 7 8 9 10 11 12 13 14 15 16 17

000
FTUS43 KGRB 251732
TAFCWA
TAF
KCWA 251732Z 2518/2618 30012G21KT P6SM -SHSN OVC025
      TEMPO 2518/2519 5SM -SHSN
     FM252100 30012G20KT P6SM SCT025
     FM252300 28008KT P6SM SCT250
     FM260500 23007KT P6SM BKN050
     FM261000 21007KT P6SM OVC020
     FM261400 22008KT P6SM VCSH OVC020=

USA.gov is the U.S. government's official web portal to all federal, state and local government web resources and services.